createdAt,value
2023-07-20T00:00:28.334Z,100140.89
2023-07-20T00:03:19.859Z,100132.91
2023-07-20T00:06:08.412Z,100131.38
2023-07-20T00:08:57.101Z,100132.44
2023-07-20T00:11:51.756Z,100132.36
2023-07-20T00:14:39.605Z,100129.06
2023-07-20T00:17:27.620Z,100126.79
2023-07-20T00:20:16.551Z,100120.74
2023-07-20T00:23:05.120Z,100119.94
2023-07-20T00:25:53.709Z,100130.31
2023-07-20T00:28:41.868Z,100141.77
2023-07-20T00:31:30.367Z,100142.93
2023-07-20T00:34:18.359Z,100142.81
2023-07-20T00:37:07.235Z,100139.81
2023-07-20T00:39:55.519Z,100132.83
2023-07-20T00:42:45.843Z,100138.10
2023-07-20T00:45:34.593Z,100145.08
2023-07-20T00:48:24.490Z,100147.48
2023-07-20T00:51:13.179Z,100146.81
2023-07-20T00:54:01.327Z,100141.87
2023-07-20T00:56:50.027Z,100139.06
2023-07-20T00:59:38.438Z,100138.56
2023-07-20T01:02:26.542Z,100140.74
2023-07-20T01:05:17.202Z,100141.73
2023-07-20T01:08:14.186Z,100144.24
2023-07-20T01:11:13.744Z,100147.55
2023-07-20T01:14:02.402Z,100142.29
2023-07-20T01:16:52.934Z,100137.13
2023-07-20T01:19:41.623Z,100138.92
2023-07-20T01:22:59.227Z,100141.77
2023-07-20T01:26:10.632Z,100150.74
2023-07-20T01:29:24.288Z,100155.75
2023-07-20T01:32:13.077Z,100154.13
2023-07-20T01:35:01.069Z,100147.45
2023-07-20T01:37:49.354Z,100141.80
2023-07-20T01:40:37.338Z,100142.58
2023-07-20T01:43:27.014Z,100147.84
2023-07-20T01:46:15.343Z,100147.91
2023-07-20T01:49:04.442Z,100147.80
2023-07-20T01:51:53.544Z,100144.43
2023-07-20T01:54:42.301Z,100141.53
2023-07-20T01:57:31.159Z,100144.19
2023-07-20T02:00:21.951Z,100145.48
2023-07-20T02:03:12.605Z,100141.60
2023-07-20T02:06:01.260Z,100138.36
2023-07-20T02:08:50.622Z,100132.23
2023-07-20T02:11:40.197Z,100126.77
2023-07-20T02:14:29.131Z,100127.46
2023-07-20T02:17:18.330Z,100119.73
2023-07-20T02:20:09.407Z,100118.65
2023-07-20T02:22:58.247Z,100122.39
2023-07-20T02:25:46.628Z,100123.55
2023-07-20T02:28:34.867Z,100124.56
2023-07-20T02:31:23.415Z,100129.75
2023-07-20T02:34:11.938Z,100130.77
2023-07-20T02:37:01.577Z,100132.02
2023-07-20T02:39:49.608Z,100132.24
2023-07-20T02:42:38.711Z,100137.03
2023-07-20T02:45:26.565Z,100136.36
2023-07-20T02:48:15.109Z,100143.61
2023-07-20T02:51:03.516Z,100139.09
2023-07-20T02:53:51.558Z,100143.80
2023-07-20T02:56:40.130Z,100144.88
2023-07-20T02:59:29.946Z,100145.79
2023-07-20T03:02:18.429Z,100144.06
2023-07-20T03:05:07.953Z,100146.98
2023-07-20T03:07:56.670Z,100147.16
2023-07-20T03:10:45.111Z,100151.44
2023-07-20T03:13:33.951Z,100153.65
2023-07-20T03:16:24.496Z,100153.83
2023-07-20T03:19:13.977Z,100147.24
2023-07-20T03:22:03.532Z,100148.13
2023-07-20T03:24:52.989Z,100142.40
2023-07-20T03:27:42.514Z,100140.80
2023-07-20T03:30:31.344Z,100132.29
2023-07-20T03:33:19.912Z,100133.98
2023-07-20T03:36:10.758Z,100132.64
2023-07-20T03:38:58.734Z,100133.96
2023-07-20T03:41:46.737Z,100137.64
2023-07-20T03:44:35.261Z,100140.17
2023-07-20T03:47:24.960Z,100143.31
2023-07-20T03:50:14.469Z,100145.73
2023-07-20T03:53:02.663Z,100144.69
2023-07-20T03:55:51.813Z,100144.11
2023-07-20T03:58:41.765Z,100142.84
2023-07-20T04:01:30.268Z,100145.12
2023-07-20T04:04:18.338Z,100150.46
2023-07-20T04:07:07.052Z,100150.74
2023-07-20T04:09:55.560Z,100147.48
2023-07-20T04:12:45.493Z,100145.02
2023-07-20T04:15:35.226Z,100144.13
2023-07-20T04:18:24.275Z,100143.20
2023-07-20T04:21:12.764Z,100139.48
2023-07-20T04:24:01.300Z,100138.45
2023-07-20T04:26:49.915Z,100136.36
2023-07-20T04:29:38.741Z,100138.73
2023-07-20T04:32:27.581Z,100133.23
2023-07-20T04:35:46.618Z,100137.50
2023-07-20T04:38:37.293Z,100134.27
2023-07-20T04:41:34.627Z,100139.27
2023-07-20T04:44:23.570Z,100137.66
2023-07-20T04:47:11.612Z,100134.92
2023-07-20T04:50:00.786Z,100135.69
2023-07-20T04:52:48.931Z,100139.40
2023-07-20T04:55:40.603Z,100133.77
2023-07-20T04:58:29.738Z,100131.98
2023-07-20T05:01:18.128Z,100133.12
2023-07-20T05:04:08.956Z,100130.06
2023-07-20T05:06:57.633Z,100131.20
2023-07-20T05:09:46.853Z,100128.79
2023-07-20T05:12:35.357Z,100128.02
2023-07-20T05:15:23.450Z,100124.87
2023-07-20T05:18:12.984Z,100123.73
2023-07-20T05:21:02.718Z,100125.02
2023-07-20T05:23:53.099Z,100120.56
2023-07-20T05:26:44.256Z,100119.38
2023-07-20T05:29:33.592Z,100123.37
2023-07-20T05:32:22.526Z,100124.33
2023-07-20T05:35:12.505Z,100121.46
2023-07-20T05:38:00.836Z,100117.23
2023-07-20T05:40:49.330Z,100114.13
2023-07-20T05:43:37.457Z,100110.73
2023-07-20T05:46:42.351Z,100102.14
2023-07-20T05:49:41.296Z,100095.17
2023-07-20T05:52:30.421Z,100093.14
2023-07-20T05:55:18.828Z,100092.79
2023-07-20T05:58:09.189Z,100093.13
2023-07-20T06:01:00.955Z,100095.27
2023-07-20T06:03:49.748Z,100092.74
2023-07-20T06:06:41.253Z,100089.52
2023-07-20T06:10:00.227Z,100091.56
2023-07-20T06:12:59.436Z,100091.21
2023-07-20T06:16:03.101Z,100090.75
2023-07-20T06:19:04.144Z,100089.55
2023-07-20T06:22:03.154Z,100089.77
2023-07-20T06:24:57.480Z,100086.70
2023-07-20T06:27:49.922Z,100083.95
2023-07-20T06:31:09.363Z,100084.09
2023-07-20T06:33:57.809Z,100090.17
2023-07-20T06:36:48.705Z,100091.30
2023-07-20T06:43:48.682Z,100094.01
2023-07-20T06:45:37.317Z,100093.34
2023-07-20T06:48:28.959Z,100091.38
2023-07-20T06:51:18.419Z,100085.45
2023-07-20T13:01:05.690Z,99883.86
2023-07-20T13:56:20.567Z,99798.77
2023-07-20T14:24:59.278Z,99785.35
2023-07-20T14:29:51.038Z,99789.99
2023-07-20T14:37:17.602Z,99788.08
2023-07-20T14:41:30.681Z,99786.08
2023-07-20T14:45:01.167Z,99781.39
2023-07-20T15:06:27.272Z,99772.02
2023-07-20T15:09:35.283Z,99772.70
2023-07-20T15:17:39.973Z,99763.98
2023-07-20T15:34:54.784Z,99742.78
2023-07-20T15:37:44.714Z,99736.69
2023-07-20T15:40:34.025Z,99733.05
2023-07-20T15:43:22.289Z,99733.45
2023-07-20T15:46:40.424Z,99739.39
2023-07-20T15:49:33.342Z,99741.64
2023-07-20T15:52:24.320Z,99738.09
2023-07-20T15:55:13.131Z,99736.30
2023-07-20T15:58:03.399Z,99726.83
2023-07-20T16:00:57.577Z,99722.39
2023-07-20T16:03:46.302Z,99722.85
2023-07-20T16:06:36.261Z,99723.33
2023-07-20T16:09:24.569Z,99720.75
2023-07-20T16:12:13.389Z,99729.29
2023-07-20T16:17:53.777Z,99728.70
2023-07-20T16:20:42.459Z,99733.55
2023-07-20T16:23:31.159Z,99736.74
2023-07-20T16:26:19.646Z,99741.55
2023-07-20T16:32:11.884Z,99742.30
2023-07-20T16:35:11.594Z,99731.98
2023-07-20T16:40:57.713Z,99721.49
2023-07-20T16:49:37.318Z,99728.56
2023-07-20T16:52:28.885Z,99722.09
2023-07-20T16:55:19.517Z,99727.07
2023-07-20T16:58:08.532Z,99738.11
2023-07-20T17:01:09.372Z,99749.40
2023-07-20T17:03:59.759Z,99752.70
2023-07-20T17:06:49.161Z,99746.91
2023-07-20T17:09:37.829Z,99743.15
2023-07-20T17:12:26.709Z,99740.14
2023-07-20T17:15:15.945Z,99741.63
2023-07-20T17:18:04.214Z,99736.06
2023-07-20T17:21:11.625Z,99732.37
2023-07-20T17:24:03.819Z,99735.29
2023-07-20T17:27:18.359Z,99741.98
2023-07-20T17:30:07.499Z,99746.51
2023-07-20T17:32:58.176Z,99748.61
2023-07-20T17:38:54.117Z,99738.34
2023-07-20T17:41:46.440Z,99736.45
2023-07-20T17:44:41.263Z,99738.41
2023-07-20T17:47:30.070Z,99743.69
2023-07-20T17:50:18.688Z,99739.52
2023-07-20T17:53:07.298Z,99733.28
2023-07-20T17:55:55.563Z,99741.37
2023-07-20T17:58:44.012Z,99758.08
2023-07-20T18:01:33.004Z,99762.33
2023-07-20T18:04:21.177Z,99764.51
2023-07-20T18:07:09.666Z,99766.41
2023-07-20T18:09:58.071Z,99772.44
2023-07-20T18:12:47.293Z,99777.48
2023-07-20T18:15:36.558Z,99784.15
2023-07-20T18:18:24.713Z,99792.74
2023-07-20T18:21:13.545Z,99820.98
2023-07-20T18:24:01.939Z,99873.16
2023-07-20T18:26:53.414Z,99867.27
2023-07-20T18:29:41.579Z,99894.70
2023-07-20T18:32:29.712Z,99912.99
2023-07-20T18:35:18.034Z,99910.80
2023-07-20T18:38:06.592Z,99908.07
2023-07-20T18:40:57.863Z,99910.73
2023-07-20T18:43:46.830Z,99911.65
2023-07-20T18:46:35.613Z,99913.48
2023-07-20T18:49:26.622Z,99926.70
2023-07-20T18:52:14.758Z,99932.89
2023-07-20T18:55:06.348Z,99919.65
2023-07-20T18:57:54.761Z,99909.30
2023-07-20T19:00:43.138Z,99893.98
2023-07-20T19:03:32.083Z,99871.26
2023-07-20T19:06:20.709Z,99846.17
2023-07-20T19:09:09.134Z,99814.17
2023-07-20T19:11:57.802Z,99790.65
2023-07-20T19:14:48.990Z,99795.23
2023-07-20T19:17:37.287Z,99812.46
2023-07-20T19:20:25.561Z,99833.91
2023-07-20T19:23:13.705Z,99847.80
2023-07-20T19:26:10.994Z,99838.64
2023-07-20T19:28:58.984Z,99830.85
2023-07-20T19:31:47.630Z,99836.11
2023-07-20T19:34:37.201Z,99831.52
2023-07-20T19:37:25.579Z,99830.66
2023-07-20T19:40:13.615Z,99832.55
2023-07-20T19:43:03.637Z,99841.95
2023-07-20T19:45:51.986Z,99845.32
2023-07-20T19:48:40.344Z,99847.73
2023-07-20T19:51:28.950Z,99847.88
2023-07-20T19:57:40.022Z,99851.00
2023-07-20T20:00:19.149Z,99853.62
2023-07-20T20:05:59.696Z,99860.29
2023-07-20T20:08:52.130Z,99871.15
2023-07-20T20:11:40.166Z,99878.56
2023-07-20T20:14:29.772Z,99878.09
2023-07-20T20:17:21.081Z,99875.70
2023-07-20T20:20:12.092Z,99873.94
2023-07-20T20:23:00.059Z,99878.27
2023-07-20T20:25:48.964Z,99882.69
2023-07-20T20:28:37.094Z,99888.30
2023-07-20T20:31:25.869Z,99883.73
2023-07-20T20:34:13.982Z,99883.11
2023-07-20T20:37:02.376Z,99885.27
2023-07-20T20:39:51.041Z,99884.94
2023-07-20T20:42:41.001Z,99886.47
2023-07-20T20:45:29.637Z,99885.10
2023-07-20T20:48:18.045Z,99888.94
2023-07-20T20:51:06.333Z,99890.31
2023-07-20T20:53:54.608Z,99891.11
2023-07-20T20:56:42.861Z,99888.08
2023-07-20T20:59:31.276Z,99894.73
2023-07-20T21:02:19.622Z,99900.41
2023-07-20T21:05:08.971Z,99901.14
2023-07-20T21:07:58.983Z,99901.14
2023-07-20T21:10:47.385Z,99896.18
2023-07-20T21:13:35.833Z,99893.31
2023-07-20T21:16:24.436Z,99894.42
2023-07-20T21:19:14.826Z,99901.47
2023-07-20T21:22:03.526Z,99899.52
2023-07-20T21:24:52.061Z,99899.94
2023-07-20T21:27:43.118Z,99895.28
2023-07-20T21:30:31.534Z,99889.29
2023-07-20T21:33:19.892Z,99887.54
2023-07-20T21:36:08.409Z,99892.17
2023-07-20T21:38:57.319Z,99895.92
2023-07-20T21:41:45.274Z,99897.86
2023-07-20T21:44:33.633Z,99898.42
2023-07-20T21:47:21.973Z,99902.83
2023-07-20T21:50:10.583Z,99906.81
2023-07-20T21:53:01.814Z,99910.41
2023-07-20T21:55:49.998Z,99917.86
2023-07-20T21:58:38.515Z,99915.45
2023-07-20T22:01:57.028Z,99919.20
2023-07-20T22:04:35.439Z,99922.00
2023-07-20T22:07:23.775Z,99925.78
2023-07-20T22:10:11.987Z,99931.30
2023-07-20T22:13:00.399Z,99934.51
2023-07-20T22:15:51.124Z,99935.05
2023-07-20T22:18:39.684Z,99935.23
2023-07-20T22:21:28.075Z,99932.84
2023-07-20T22:24:16.660Z,99931.54
2023-07-20T22:27:05.149Z,99932.36
2023-07-20T22:29:53.316Z,99925.71
2023-07-20T22:32:43.670Z,99914.81
2023-07-20T22:35:32.621Z,99919.06
2023-07-20T22:38:21.242Z,99924.42
2023-07-20T22:41:09.653Z,99927.61
2023-07-20T22:43:57.996Z,99923.29
2023-07-20T22:46:47.395Z,99922.64
2023-07-20T22:49:36.045Z,99919.05
2023-07-20T22:52:24.490Z,99918.33
2023-07-20T22:55:12.809Z,99920.71
2023-07-20T22:58:01.128Z,99919.90
2023-07-20T23:00:49.073Z,99921.81
2023-07-20T23:03:38.092Z,99922.48
2023-07-20T23:06:26.710Z,99919.75
2023-07-20T23:09:15.310Z,99923.23
2023-07-20T23:12:03.750Z,99926.02
2023-07-20T23:15:17.250Z,99927.01
2023-07-20T23:18:32.784Z,99927.86
2023-07-20T23:21:46.019Z,99927.88
2023-07-20T23:24:59.812Z,99931.48
2023-07-20T23:28:07.140Z,99932.45
2023-07-20T23:31:21.139Z,99940.77
2023-07-20T23:34:36.674Z,99941.02
2023-07-20T23:37:50.426Z,99936.20
2023-07-20T23:41:06.191Z,99933.33
2023-07-20T23:44:20.057Z,99937.48
2023-07-20T23:47:35.393Z,99932.13
2023-07-20T23:50:42.422Z,99938.29
2023-07-20T23:53:49.817Z,99940.83
2023-07-20T23:57:03.161Z,99945.87
